55NM weather

Burris Ranch Nr 1 Airport
Belen, New Mexico, United States

Public forecast

Using degrees Fahrenheit for public forecast. Weather courtesy of forecast.io.

Closest aviation weather report (METAR) to Burris Ranch Nr 1 Airport

Closest report is Belen Regional Airport, 14.6 nm (27.1 km) NW. Retrieved 2020/02/21 06:55 UTC (9 minutes ago):

KBRG 210655Z AUTO 20004KT 10SM CLR M01/M04 A3050 RMK AO2 T10091045

Closest aviation forecast (TAF) to Burris Ranch Nr 1 Airport

Closest forecast is Albuquerque International Sunport, 33.4 nm (61.9 km) N. Retrieved 2020/02/21 06:24 UTC (40 minutes ago):

TAF KABQ 210522Z 2106/2206 09018KT P6SM BKN200 FM210800 09011KT P6SM BKN200 FM211200 07007KT P6SM BKN200 FM211900 15006KT P6SM SCT200 FM220200 12006KT P6SM SCT120